Time;durP1;ratioP1;P1;durP2;ratioP2;P2;SDS_P1;SDS_P2;PMS_P1;PMS_P2;Temp;Humidity;BMP_temperature;BMP_pressure;BME280_temperature;BME280_humidity;BME280_pressure;Samples;Min_cycle;Max_cycle;Signal;HPM_P1;HPM_P2
2023/06/24 00:06:58;;;;;;;12.87;9.20;;;;;;;;;;4968209;28;20200;-67
2023/06/24 00:17:29;;;;;;;12.03;9.40;;;;;;;;;;4962870;28;20285;-67
2023/06/24 00:24:04;;;;;;;11.87;8.70;;;;;;;;;;4952499;28;20189;-67
2023/06/24 00:30:31;;;;;;;13.53;10.87;;;;;;;;;;4933243;29;20197;-67
2023/06/24 00:36:58;;;;;;;14.23;9.93;;;;;;;;;;4933276;29;20214;-67
2023/06/24 00:43:25;;;;;;;13.87;9.33;;;;;;;;;;4953074;28;20228;-67
2023/06/24 00:49:51;;;;;;;14.53;8.97;;;;;;;;;;4933157;29;20186;-67
2023/06/24 00:56:18;;;;;;;11.30;8.97;;;;;;;;;;4966534;28;20188;-67
2023/06/24 01:02:48;;;;;;;11.73;8.33;;;;;;;;;;4971349;28;20212;-67
2023/06/24 01:09:15;;;;;;;10.93;8.47;;;;;;;;;;4971147;28;20373;-66
2023/06/24 01:24:01;;;;;;;10.13;7.20;;;;;;;;;;4970989;28;20342;-67
2023/06/24 01:30:57;;;;;;;9.13;7.07;;;;;;;;;;4970635;28;20184;-66
2023/06/24 01:56:23;;;;;;;10.27;7.10;;;;;;;;;;4952332;28;20233;-66
2023/06/24 02:03:00;;;;;;;11.63;6.57;;;;;;;;;;4966972;28;20254;-66
2023/06/24 02:09:28;;;;;;;9.77;6.13;;;;;;;;;;4950817;29;20671;-66
2023/06/24 02:20:01;;;;;;;10.43;6.93;;;;;;;;;;4950581;28;20181;-66
2023/06/24 02:26:28;;;;;;;11.20;6.20;;;;;;;;;;4950573;29;20592;-66
2023/06/24 03:21:29;;;;;;;7.13;5.43;;;;;;;;;;4949638;28;20549;-67
2023/06/24 03:28:03;;;;;;;8.63;6.17;;;;;;;;;;4949538;28;20258;-67
2023/06/24 03:34:28;;;;;;;9.40;6.07;;;;;;;;;;4949569;28;20582;-67
2023/06/24 03:41:05;;;;;;;9.27;6.10;;;;;;;;;;4949797;28;20589;-67
2023/06/24 03:54:49;;;;;;;6.77;5.13;;;;;;;;;;4956176;28;20187;-67
2023/06/24 04:01:18;;;;;;;12.07;7.93;;;;;;;;;;4972186;28;20880;-67
2023/06/24 04:08:14;;;;;;;10.13;6.67;;;;;;;;;;4972881;28;20702;-67
2023/06/24 04:14:59;;;;;;;10.10;5.90;;;;;;;;;;4971917;28;20911;-67
2023/06/24 04:21:43;;;;;;;13.27;6.17;;;;;;;;;;4972057;28;20180;-68
2023/06/24 04:28:37;;;;;;;9.53;6.17;;;;;;;;;;4971918;28;20197;-67
2023/06/24 04:35:41;;;;;;;9.13;6.20;;;;;;;;;;4971691;28;20185;-68
2023/06/24 04:42:08;;;;;;;11.03;6.40;;;;;;;;;;4971916;28;20207;-66
2023/06/24 04:48:45;;;;;;;8.10;5.63;;;;;;;;;;4930047;28;20316;-67
2023/06/24 04:55:23;;;;;;;9.40;5.73;;;;;;;;;;4962025;28;20200;-67
2023/06/24 05:01:49;;;;;;;10.43;5.70;;;;;;;;;;4931826;29;20566;-65
2023/06/24 05:12:23;;;;;;;11.07;6.23;;;;;;;;;;4951002;29;20640;-67
2023/06/24 05:22:56;;;;;;;9.60;5.63;;;;;;;;;;4951686;28;20980;-69
2023/06/24 05:29:24;;;;;;;8.00;5.43;;;;;;;;;;4938787;29;20237;-66
2023/06/24 05:36:01;;;;;;;7.00;5.00;;;;;;;;;;4939585;28;20209;-67
2023/06/24 05:42:27;;;;;;;11.93;5.30;;;;;;;;;;4969562;28;20607;-66
2023/06/24 05:49:05;;;;;;;5.87;4.83;;;;;;;;;;4969056;28;20199;-66
2023/06/24 05:55:31;;;;;;;6.77;5.10;;;;;;;;;;4969118;28;20187;-66
2023/06/24 06:02:32;;;;;;;8.13;5.30;;;;;;;;;;4944437;28;20194;-66
2023/06/24 06:08:58;;;;;;;7.13;4.97;;;;;;;;;;4927428;29;20234;-67
2023/06/24 06:16:01;;;;;;;7.50;4.70;;;;;;;;;;4943984;28;20201;-66
2023/06/24 06:26:57;;;;;;;8.53;5.23;;;;;;;;;;4940974;28;20296;-66
2023/06/24 06:33:24;;;;;;;7.30;5.37;;;;;;;;;;4948516;28;20679;-67
2023/06/24 06:39:50;;;;;;;6.97;5.10;;;;;;;;;;4917042;28;20576;-66
2023/06/24 06:46:17;;;;;;;8.80;5.00;;;;;;;;;;4928727;29;20240;-65
2023/06/24 06:52:43;;;;;;;8.33;5.13;;;;;;;;;;4951143;28;20277;-65
2023/06/24 06:59:10;;;;;;;6.47;4.80;;;;;;;;;;4945262;29;20634;-65
2023/06/24 07:05:36;;;;;;;6.00;4.33;;;;;;;;;;4945634;28;20289;-67
2023/06/24 07:12:48;;;;;;;6.00;4.20;;;;;;;;;;4884912;29;20255;-67
2023/06/24 07:23:13;;;;;;;6.40;3.77;;;;;;;;;;4860337;29;20259;-67
2023/06/24 07:29:38;;;;;;;5.57;3.93;;;;;;;;;;4889756;29;20236;-66
2023/06/24 07:36:05;;;;;;;5.73;3.50;;;;;;;;;;4907435;29;20179;-67
2023/06/24 07:42:32;;;;;;;3.93;3.40;;;;;;;;;;4949695;29;20244;-66
2023/06/24 07:49:24;;;;;;;7.70;3.70;;;;;;;;;;4930073;29;20557;-68
2023/06/24 07:55:50;;;;;;;5.53;3.50;;;;;;;;;;4960305;28;20180;-67
2023/06/24 08:02:17;;;;;;;5.53;3.80;;;;;;;;;;4969092;28;20176;-68
2023/06/24 08:09:19;;;;;;;3.73;2.97;;;;;;;;;;4949236;28;20172;-67
2023/06/24 08:15:46;;;;;;;4.80;3.50;;;;;;;;;;4968295;28;20191;-67
2023/06/24 08:22:12;;;;;;;5.97;3.67;;;;;;;;;;4968613;28;20243;-68
2023/06/24 08:33:09;;;;;;;6.90;3.30;;;;;;;;;;4968456;28;20180;-67
2023/06/24 08:39:38;;;;;;;8.07;3.87;;;;;;;;;;4971775;28;20640;-67
2023/06/24 08:46:05;;;;;;;8.53;3.37;;;;;;;;;;4971523;28;20212;-67
2023/06/24 08:57:01;;;;;;;5.63;3.43;;;;;;;;;;4896685;29;20259;-67
2023/06/24 09:07:30;;;;;;;9.90;3.67;;;;;;;;;;4913718;29;20226;-68
2023/06/24 09:13:56;;;;;;;3.97;3.37;;;;;;;;;;4952716;28;20169;-67
2023/06/24 09:20:24;;;;;;;4.57;3.50;;;;;;;;;;4960461;28;20203;-68
2023/06/24 09:26:50;;;;;;;5.83;3.30;;;;;;;;;;4966715;28;20267;-69
2023/06/24 09:33:16;;;;;;;4.50;3.70;;;;;;;;;;4977219;28;20208;-67
2023/06/24 09:39:45;;;;;;;5.70;3.30;;;;;;;;;;4987472;28;20224;-67
2023/06/24 09:46:10;;;;;;;10.63;3.53;;;;;;;;;;4987517;28;20216;-68
2023/06/24 09:52:36;;;;;;;5.17;3.10;;;;;;;;;;4987099;28;20212;-67
2023/06/24 09:59:05;;;;;;;4.97;3.43;;;;;;;;;;4970400;28;20177;-68
2023/06/24 10:05:32;;;;;;;5.07;3.17;;;;;;;;;;4970274;28;20180;-68
2023/06/24 10:12:00;;;;;;;3.90;3.23;;;;;;;;;;4969685;28;20177;-67
2023/06/24 10:18:33;;;;;;;7.90;3.83;;;;;;;;;;4969996;28;20268;-68
2023/06/24 10:25:00;;;;;;;6.60;3.50;;;;;;;;;;4953529;28;20278;-68
2023/06/24 10:35:38;;;;;;;12.27;4.47;;;;;;;;;;4950331;29;20174;-68
2023/06/24 10:42:48;;;;;;;5.53;3.67;;;;;;;;;;4931342;29;20267;-67
2023/06/24 10:49:26;;;;;;;7.87;4.23;;;;;;;;;;4950028;29;20177;-67
2023/06/24 10:56:30;;;;;;;8.73;3.63;;;;;;;;;;4946528;29;20745;-67
2023/06/24 11:03:13;;;;;;;13.60;4.30;;;;;;;;;;4922834;28;20378;-67
2023/06/24 11:09:42;;;;;;;5.97;3.40;;;;;;;;;;4941731;28;20245;-68
2023/06/24 11:16:08;;;;;;;6.53;3.80;;;;;;;;;;4973124;28;20191;-67
2023/06/24 11:22:46;;;;;;;10.30;3.90;;;;;;;;;;4968927;28;20297;-67
2023/06/24 11:29:23;;;;;;;6.23;4.17;;;;;;;;;;4968579;28;20266;-67
2023/06/24 11:40:44;;;;;;;7.83;4.07;;;;;;;;;;4948925;28;20229;-67
2023/06/24 11:51:41;;;;;;;6.67;4.17;;;;;;;;;;4942968;28;20324;-67
2023/06/24 11:58:04;;;;;;;6.10;4.03;;;;;;;;;;4925793;28;20209;-68
2023/06/24 12:05:08;;;;;;;6.43;3.87;;;;;;;;;;4930764;29;20245;-67
2023/06/24 12:16:16;;;;;;;7.13;3.97;;;;;;;;;;4883369;29;20284;-67
2023/06/24 12:22:42;;;;;;;5.73;4.30;;;;;;;;;;4902994;29;20209;-67
2023/06/24 12:41:11;;;;;;;7.77;4.40;;;;;;;;;;4870888;29;20189;-67
2023/06/24 12:52:07;;;;;;;6.93;4.00;;;;;;;;;;4916662;29;20310;-66
2023/06/24 12:58:36;;;;;;;11.70;4.50;;;;;;;;;;4929381;29;20222;-67
2023/06/24 13:31:59;;;;;;;7.37;3.60;;;;;;;;;;4842649;29;20270;-67
2023/06/24 13:46:46;;;;;;;4.93;3.80;;;;;;;;;;4846174;29;20357;-67
2023/06/24 13:53:14;;;;;;;5.07;4.00;;;;;;;;;;4954492;28;20249;-67
2023/06/24 13:59:39;;;;;;;4.87;3.67;;;;;;;;;;4930023;29;20234;-67
2023/06/24 14:06:06;;;;;;;4.87;3.77;;;;;;;;;;4968599;28;20544;-68
2023/06/24 14:12:31;;;;;;;4.03;3.63;;;;;;;;;;4949503;29;20202;-67
2023/06/24 14:19:34;;;;;;;7.10;3.60;;;;;;;;;;4930286;29;20167;-67
2023/06/24 14:26:01;;;;;;;4.50;3.40;;;;;;;;;;4949660;28;20241;-68
2023/06/24 14:44:32;;;;;;;3.97;3.20;;;;;;;;;;4937222;28;20232;-68
2023/06/24 14:50:58;;;;;;;8.60;3.80;;;;;;;;;;4932560;28;20741;-68
2023/06/24 14:57:26;;;;;;;5.57;3.20;;;;;;;;;;4935347;29;20256;-68
2023/06/24 15:03:53;;;;;;;3.73;3.10;;;;;;;;;;4944009;29;20218;-67
2023/06/24 15:14:56;;;;;;;6.47;3.07;;;;;;;;;;4913438;29;20249;-67
2023/06/24 15:21:23;;;;;;;3.50;2.97;;;;;;;;;;4924804;29;20256;-67
2023/06/24 15:28:01;;;;;;;8.73;3.20;;;;;;;;;;4936368;29;20257;-67
2023/06/24 15:34:27;;;;;;;4.03;2.50;;;;;;;;;;4927137;29;20249;-68
2023/06/24 15:45:04;;;;;;;5.90;2.63;;;;;;;;;;4948451;28;20177;-68
2023/06/24 15:51:31;;;;;;;17.73;3.60;;;;;;;;;;4949336;29;20609;-68
2023/06/24 15:57:58;;;;;;;14.70;4.17;;;;;;;;;;4947171;28;20193;-69
2023/06/24 16:04:25;;;;;;;5.87;3.00;;;;;;;;;;4967387;28;20721;-66
2023/06/24 16:10:51;;;;;;;4.73;2.77;;;;;;;;;;4963363;28;20229;-68
2023/06/24 16:17:19;;;;;;;4.00;2.80;;;;;;;;;;4929160;29;20187;-68
2023/06/24 16:23:45;;;;;;;4.67;2.80;;;;;;;;;;4947900;29;20227;-67
2023/06/24 16:30:12;;;;;;;4.47;3.30;;;;;;;;;;4946971;29;20185;-67
2023/06/24 16:36:40;;;;;;;8.90;4.13;;;;;;;;;;4965767;28;20176;-67
2023/06/24 17:10:20;;;;;;;6.37;3.93;;;;;;;;;;4916401;29;20226;-68
2023/06/24 17:25:46;;;;;;;7.20;5.00;;;;;;;;;;4927234;29;20328;-69
2023/06/24 18:07:23;;;;;;;10.90;6.83;;;;;;;;;;4871794;29;20367;-67
2023/06/24 18:18:13;;;;;;;7.07;5.63;;;;;;;;;;4861879;29;20607;-70
2023/06/24 18:24:56;;;;;;;8.77;6.30;;;;;;;;;;4579380;28;10020874;-69
2023/06/24 18:35:34;;;;;;;8.13;5.60;;;;;;;;;;4948585;29;20181;-68
2023/06/24 18:46:01;;;;;;;8.37;7.00;;;;;;;;;;4929011;29;20918;-70
2023/06/24 18:57:10;;;;;;;8.10;5.50;;;;;;;;;;4945191;28;20233;-67
2023/06/24 19:26:13;;;;;;;10.80;6.63;;;;;;;;;;4907305;29;20773;-67
2023/06/24 19:32:40;;;;;;;9.03;6.47;;;;;;;;;;4944729;28;20489;-67
2023/06/24 19:39:06;;;;;;;9.80;7.20;;;;;;;;;;4947474;29;20209;-67
2023/06/24 20:16:00;;;;;;;10.90;7.10;;;;;;;;;;4887689;29;20183;-67
2023/06/24 20:26:56;;;;;;;12.30;7.60;;;;;;;;;;4925114;29;20217;-67
2023/06/24 20:33:33;;;;;;;10.87;6.87;;;;;;;;;;4963930;28;20197;-68
2023/06/24 20:40:36;;;;;;;11.97;7.73;;;;;;;;;;4945557;28;20201;-68
2023/06/24 20:55:12;;;;;;;10.70;8.40;;;;;;;;;;4945949;28;20236;-68
2023/06/24 21:01:51;;;;;;;11.43;8.60;;;;;;;;;;4929612;29;20240;-68
2023/06/24 21:08:19;;;;;;;12.43;8.73;;;;;;;;;;4934750;28;20812;-68
2023/06/24 21:15:24;;;;;;;13.30;9.47;;;;;;;;;;4941078;28;20683;-69
2023/06/24 21:22:01;;;;;;;13.80;9.50;;;;;;;;;;4940001;28;21566;-67
2023/06/24 21:32:32;;;;;;;22.60;15.80;;;;;;;;;;4869538;29;20276;-71
2023/06/24 21:38:59;;;;;;;22.20;14.77;;;;;;;;;;4889027;29;20638;-67
2023/06/24 21:53:31;;;;;;;18.47;13.40;;;;;;;;;;4909965;29;20206;-69
2023/06/24 21:59:57;;;;;;;18.57;11.73;;;;;;;;;;4891851;29;20195;-69
2023/06/24 22:06:24;;;;;;;16.77;12.13;;;;;;;;;;4893772;29;20179;-69
2023/06/24 22:12:50;;;;;;;18.33;12.13;;;;;;;;;;4931810;29;20714;-69
2023/06/24 22:19:16;;;;;;;23.57;14.77;;;;;;;;;;4931486;29;20213;-68
2023/06/24 22:25:43;;;;;;;18.63;12.50;;;;;;;;;;4931178;29;20553;-69
2023/06/24 22:36:46;;;;;;;22.47;16.00;;;;;;;;;;4886962;29;20216;-69
2023/06/24 22:47:16;;;;;;;19.63;12.53;;;;;;;;;;4909834;29;20546;-69
2023/06/24 22:57:55;;;;;;;19.87;12.87;;;;;;;;;;4909542;29;20223;-69
2023/06/24 23:04:21;;;;;;;17.93;13.10;;;;;;;;;;4911475;29;20250;-69
2023/06/24 23:10:47;;;;;;;15.97;10.90;;;;;;;;;;4911765;29;20190;-69
2023/06/24 23:17:46;;;;;;;16.10;10.80;;;;;;;;;;4871668;29;20236;-69
2023/06/24 23:24:06;;;;;;;16.97;11.90;;;;;;;;;;4843257;29;20292;-69
2023/06/24 23:30:46;;;;;;;20.23;11.83;;;;;;;;;;4871088;29;20189;-68
2023/06/24 23:37:12;;;;;;;15.83;11.80;;;;;;;;;;4871035;29;20220;-69
2023/06/24 23:43:38;;;;;;;18.67;12.53;;;;;;;;;;4871427;29;20212;-68
2023/06/24 23:58:05;;;;;;;23.53;12.80;;;;;;;;;;4903630;29;20674;-70
